McCleary, Washington
Current Conditions -  °F | °C
As of 9:53 PM on Saturday 22 Nov 2014 (Local Time) from KSHN Reporting Station
Overcast Overcast  
Wind Chill: 44°   Ceiling: 3300
Heat Index: 44°   Visibility: 10mi
Dew Point: 41°   Wind: 3mph
Humidity: 89%   Direction: 310°NW
Pressure: 30.1"   Gusts: NA
Location:  47.05°N, 123.27°W
Report Text: KSHN 230553Z AUTO 31003KT 10SM SCT027 BKN033 OVC043 07/05 A3010 RMK AO2 RAB22E47 SLP196 P0002 60004 T00670050 10094 20050 52022
Loading
Personal Weather Stations






























Interactive Weather Map New forecast layout! Learn more

10-Day Weather Forecast

Advertisements
Track Severe Weather on mobile